createdAt,value
2022-12-19T00:00:34.947Z,57.23
2022-12-19T00:03:02.838Z,66.87
2022-12-19T00:05:31.088Z,56.13
2022-12-19T00:08:00.554Z,54.37
2022-12-19T00:10:35.847Z,52.13
2022-12-19T00:13:03.593Z,64.53
2022-12-19T00:15:31.376Z,62.77
2022-12-19T00:17:59.472Z,62.97
2022-12-19T00:20:27.621Z,57.10
2022-12-19T00:22:55.447Z,65.83
2022-12-19T00:25:23.677Z,59.17
2022-12-19T00:27:54.426Z,62.53
2022-12-19T00:30:22.408Z,60.70
2022-12-19T00:32:51.198Z,64.03
2022-12-19T00:35:18.987Z,64.47
2022-12-19T00:37:49.375Z,65.27
2022-12-19T00:40:18.487Z,61.53
2022-12-19T00:42:51.678Z,61.57
2022-12-19T00:45:23.484Z,63.83
2022-12-19T00:47:51.337Z,62.10
2022-12-19T00:50:19.330Z,65.87
2022-12-19T00:52:47.554Z,61.30
2022-12-19T00:55:18.990Z,72.70
2022-12-19T00:57:48.578Z,60.40
2022-12-19T01:00:18.636Z,73.00
2022-12-19T01:02:47.963Z,67.03
2022-12-19T01:05:16.885Z,71.60
2022-12-19T01:07:44.698Z,74.47
2022-12-19T01:10:12.549Z,58.87
2022-12-19T01:12:48.787Z,67.47
2022-12-19T01:15:18.858Z,68.40
2022-12-19T01:17:48.885Z,70.13
2022-12-19T01:20:24.334Z,63.60
2022-12-19T01:23:00.864Z,73.93
2022-12-19T01:25:28.899Z,71.53
2022-12-19T01:27:57.192Z,64.67
2022-12-19T01:30:26.127Z,64.53
2022-12-19T01:32:57.655Z,70.87
2022-12-19T01:35:26.388Z,68.70
2022-12-19T01:38:07.604Z,72.17
2022-12-19T01:40:37.241Z,69.30
2022-12-19T01:43:05.598Z,71.53
2022-12-19T01:45:45.229Z,65.63
2022-12-19T01:48:20.916Z,70.83
2022-12-19T01:51:01.345Z,66.37
2022-12-19T01:53:34.607Z,73.50
2022-12-19T01:56:10.409Z,70.80
2022-12-19T01:58:40.955Z,66.43
2022-12-19T02:01:10.872Z,72.53
2022-12-19T02:03:41.548Z,70.93
2022-12-19T02:06:10.728Z,76.20
2022-12-19T02:08:39.274Z,69.33
2022-12-19T02:11:07.178Z,78.43
2022-12-19T02:13:35.900Z,69.70
2022-12-19T02:16:13.476Z,75.20
2022-12-19T02:18:49.893Z,67.90
2022-12-19T02:21:26.421Z,72.00
2022-12-19T02:24:25.565Z,72.53
2022-12-19T02:27:13.541Z,73.83
2022-12-19T02:30:08.025Z,73.77
2022-12-19T02:32:44.466Z,71.77
2022-12-19T02:35:20.826Z,71.83
2022-12-19T02:37:54.473Z,73.27
2022-12-19T02:40:28.694Z,63.77
2022-12-19T02:43:00.291Z,70.43
2022-12-19T02:45:32.256Z,76.50
2022-12-19T02:48:08.433Z,75.57
2022-12-19T02:50:39.152Z,74.37
2022-12-19T02:53:07.558Z,69.30
2022-12-19T02:55:43.940Z,70.93
2022-12-19T02:58:31.678Z,73.13
2022-12-19T03:01:12.420Z,75.83
2022-12-19T03:03:53.092Z,71.27
2022-12-19T03:06:28.077Z,75.63
2022-12-19T03:09:03.562Z,78.10
2022-12-19T03:11:37.237Z,77.20
2022-12-19T03:14:08.609Z,70.93
2022-12-19T03:16:37.804Z,70.97
2022-12-19T03:19:11.175Z,75.70
2022-12-19T03:21:41.848Z,69.07
2022-12-19T03:24:11.680Z,76.03
2022-12-19T03:26:47.544Z,68.90
2022-12-19T03:29:20.759Z,64.40
2022-12-19T03:31:49.388Z,70.50
2022-12-19T03:34:26.382Z,65.50
2022-12-19T03:36:59.029Z,76.03
2022-12-19T03:39:29.982Z,62.43
2022-12-19T03:42:18.078Z,68.57
2022-12-19T03:44:46.132Z,67.17
2022-12-19T03:47:19.623Z,64.93
2022-12-19T03:49:50.602Z,60.80
2022-12-19T03:52:28.640Z,68.40
2022-12-19T03:55:02.440Z,71.70
2022-12-19T03:57:37.136Z,55.88
2022-12-19T04:00:08.843Z,64.00
2022-12-19T04:02:39.795Z,76.97
2022-12-19T04:05:12.158Z,59.70
2022-12-19T04:07:41.941Z,62.87
2022-12-19T04:10:15.629Z,64.83
2022-12-19T04:12:48.936Z,64.43
2022-12-19T04:15:17.781Z,62.85
2022-12-19T04:17:49.945Z,62.75
2022-12-19T04:20:22.205Z,65.13
2022-12-19T04:22:55.832Z,65.27
2022-12-19T04:25:29.672Z,59.83
2022-12-19T04:28:04.728Z,62.67
2022-12-19T04:30:36.597Z,63.00
2022-12-19T04:33:05.461Z,63.30
2022-12-19T04:35:37.997Z,63.47
2022-12-19T04:38:07.170Z,61.80
2022-12-19T04:40:41.290Z,59.10
2022-12-19T04:43:10.337Z,66.10
2022-12-19T04:45:38.378Z,58.00
2022-12-19T04:48:08.184Z,65.83
2022-12-19T04:50:39.052Z,60.57
2022-12-19T04:53:07.536Z,58.17
2022-12-19T04:55:35.414Z,62.90
2022-12-19T04:58:05.040Z,61.08
2022-12-19T05:00:33.359Z,52.28
2022-12-19T05:03:01.251Z,64.97
2022-12-19T05:05:29.396Z,59.97
2022-12-19T05:07:58.664Z,52.83
2022-12-19T05:10:26.598Z,56.50
2022-12-19T05:12:55.913Z,60.88
2022-12-19T05:15:24.885Z,52.92
2022-12-19T05:17:53.166Z,65.28
2022-12-19T05:20:21.227Z,55.47
2022-12-19T05:22:49.043Z,59.88
2022-12-19T05:25:18.601Z,67.57
2022-12-19T05:27:46.796Z,60.42
2022-12-19T05:30:15.038Z,64.72
2022-12-19T05:32:43.118Z,59.05
2022-12-19T05:35:11.467Z,61.53
2022-12-19T05:37:39.308Z,66.22
2022-12-19T05:40:08.536Z,61.95
2022-12-19T05:42:38.216Z,70.50
2022-12-19T05:45:06.636Z,67.35
2022-12-19T05:47:34.506Z,64.93
2022-12-19T05:50:02.402Z,68.20
2022-12-19T05:52:31.303Z,67.03
2022-12-19T05:54:59.320Z,63.97
2022-12-19T05:57:27.869Z,62.78
2022-12-19T05:59:57.076Z,62.45
2022-12-19T06:02:25.334Z,57.60
2022-12-19T06:04:54.359Z,69.68
2022-12-19T06:07:22.458Z,62.30
2022-12-19T06:09:50.288Z,56.42
2022-12-19T06:12:19.949Z,55.42
2022-12-19T06:14:47.959Z,58.92
2022-12-19T06:17:17.498Z,55.85
2022-12-19T06:19:46.643Z,53.83
2022-12-19T06:22:14.581Z,56.03
2022-12-19T06:24:44.920Z,62.25
2022-12-19T06:27:12.851Z,49.70
2022-12-19T06:29:40.978Z,61.35
2022-12-19T06:32:09.096Z,61.85
2022-12-19T06:37:27.420Z,59.20
2022-12-19T06:39:55.609Z,51.40
2022-12-19T06:42:25.530Z,61.88
2022-12-19T06:44:56.101Z,61.95
2022-12-19T06:47:25.397Z,53.92
2022-12-19T06:49:54.942Z,52.83
2022-12-19T06:52:23.196Z,54.40
2022-12-19T06:54:51.590Z,55.05
2022-12-19T06:57:19.715Z,57.85
2022-12-19T06:59:47.840Z,56.80
2022-12-19T07:02:27.915Z,61.25
2022-12-19T07:05:02.858Z,56.22
2022-12-19T07:10:18.764Z,62.42
2022-12-19T07:12:46.964Z,60.00
2022-12-19T07:15:15.022Z,58.20
2022-12-19T07:17:44.095Z,57.60
2022-12-19T07:20:15.183Z,60.13
2022-12-19T07:22:44.182Z,57.88
2022-12-19T07:25:12.753Z,63.55
2022-12-19T07:27:40.930Z,64.10
2022-12-19T07:30:10.641Z,60.45
2022-12-19T07:32:39.587Z,69.15
2022-12-19T07:35:10.787Z,79.20
2022-12-19T07:37:40.553Z,68.45
2022-12-19T07:40:09.770Z,72.32
2022-12-19T07:42:37.550Z,71.63
2022-12-19T07:45:06.553Z,65.00
2022-12-19T07:47:35.361Z,71.53
2022-12-19T07:50:03.885Z,56.80
2022-12-19T07:52:32.385Z,60.53
2022-12-19T07:55:01.944Z,55.55
2022-12-19T07:57:31.291Z,55.40
2022-12-19T07:59:59.675Z,61.45
2022-12-19T08:02:27.922Z,63.28
2022-12-19T08:04:56.027Z,59.58
2022-12-19T08:07:24.455Z,65.65
2022-12-19T08:09:52.309Z,64.47
2022-12-19T08:12:21.576Z,56.55
2022-12-19T08:14:54.166Z,64.82
2022-12-19T08:17:24.940Z,52.80
2022-12-19T08:19:53.803Z,48.83
2022-12-19T08:22:22.314Z,57.33
2022-12-19T08:24:50.201Z,58.53
2022-12-19T08:27:18.936Z,60.42
2022-12-19T08:29:48.702Z,50.50
2022-12-19T08:32:21.132Z,55.85
2022-12-19T08:34:50.309Z,64.75
2022-12-19T08:37:18.347Z,60.85
2022-12-19T08:39:46.202Z,70.78
2022-12-19T08:42:14.537Z,59.15
2022-12-19T08:44:43.781Z,81.15
2022-12-19T08:47:13.585Z,69.00
2022-12-19T08:49:41.632Z,81.22
2022-12-19T08:52:09.647Z,71.43
2022-12-19T08:54:38.174Z,52.53
2022-12-19T08:57:07.107Z,54.13
2022-12-19T08:59:35.077Z,52.42
2022-12-19T09:02:04.965Z,43.38
2022-12-19T09:06:00.268Z,56.88
2022-12-19T09:07:27.702Z,42.35
2022-12-19T09:09:56.060Z,45.88
2022-12-19T09:12:24.089Z,45.97
2022-12-19T09:14:51.996Z,48.50
2022-12-19T09:17:21.299Z,50.92
2022-12-19T09:19:50.805Z,40.80
2022-12-19T09:22:19.361Z,43.60
2022-12-19T09:24:47.365Z,35.75
2022-12-19T09:27:15.352Z,47.38
2022-12-19T09:29:43.749Z,43.65
2022-12-19T09:32:12.681Z,35.78
2022-12-19T09:34:40.824Z,42.00
2022-12-19T09:37:16.760Z,36.53
2022-12-19T09:39:46.832Z,36.58
2022-12-19T09:42:28.019Z,39.72
2022-12-19T09:45:27.416Z,36.20
2022-12-19T09:48:00.833Z,37.45
2022-12-19T09:50:38.431Z,45.72
2022-12-19T09:53:18.076Z,35.35
2022-12-19T09:55:48.483Z,38.60
2022-12-19T09:58:30.229Z,37.50
2022-12-19T10:01:00.568Z,37.65
2022-12-19T10:03:40.028Z,41.80
2022-12-19T10:07:11.197Z,46.80
2022-12-19T10:11:20.868Z,40.60
2022-12-19T10:12:43.501Z,40.90
2022-12-19T10:15:20.431Z,39.33
2022-12-19T10:18:06.460Z,40.50
2022-12-19T10:20:38.556Z,38.25
2022-12-19T10:23:26.127Z,39.78
2022-12-19T10:26:01.584Z,42.03
2022-12-19T10:28:56.297Z,42.15
2022-12-19T10:31:34.338Z,37.42
2022-12-19T10:34:07.823Z,38.95
2022-12-19T10:39:49.735Z,35.95
2022-12-19T10:42:31.359Z,34.92
2022-12-19T10:45:04.242Z,40.88
2022-12-19T10:47:32.323Z,36.78
2022-12-19T10:50:05.410Z,43.00
2022-12-19T10:52:52.271Z,36.65
2022-12-19T10:55:33.855Z,37.42
2022-12-19T10:58:21.819Z,41.42
2022-12-19T11:01:06.282Z,42.47
2022-12-19T11:03:35.932Z,42.30
2022-12-19T11:06:06.776Z,39.65
2022-12-19T11:08:36.633Z,43.47
2022-12-19T11:13:32.224Z,40.50
2022-12-19T11:18:44.490Z,43.10
2022-12-19T11:28:26.009Z,39.83
2022-12-19T11:29:26.910Z,36.75
2022-12-19T11:30:45.317Z,38.80
2022-12-19T11:30:46.768Z,37.00
2022-12-19T11:30:59.414Z,41.60
2022-12-19T11:34:36.211Z,37.80
2022-12-19T11:37:19.514Z,37.35
2022-12-19T11:39:59.767Z,33.80
2022-12-19T11:42:32.777Z,40.95
2022-12-19T11:45:08.691Z,40.25
2022-12-19T11:47:45.369Z,38.78
2022-12-19T11:50:19.463Z,46.25
2022-12-19T11:53:04.196Z,45.80
2022-12-19T11:55:42.133Z,54.80
2022-12-19T11:58:12.165Z,36.95
2022-12-19T12:00:46.287Z,37.05
2022-12-19T12:03:55.925Z,36.08
2022-12-19T12:06:34.540Z,41.05
2022-12-19T12:13:31.761Z,42.38
2022-12-19T12:15:58.282Z,44.30
2022-12-19T12:31:10.850Z,42.08
2022-12-19T12:31:14.157Z,41.65
2022-12-19T12:31:18.383Z,38.35
2022-12-19T12:31:43.268Z,38.17
2022-12-19T12:31:44.719Z,39.17
2022-12-19T12:31:57.582Z,45.50
2022-12-19T12:35:56.945Z,38.47
2022-12-19T12:39:04.693Z,38.85
2022-12-19T12:42:01.939Z,37.60
2022-12-19T12:44:33.818Z,39.58
2022-12-19T12:47:10.959Z,42.00
2022-12-19T12:49:41.482Z,38.42
2022-12-19T12:52:17.499Z,39.78
2022-12-19T12:54:51.620Z,44.10
2022-12-19T12:57:33.901Z,33.97
2022-12-19T13:00:20.622Z,52.03
2022-12-19T13:02:53.709Z,35.80
2022-12-19T13:05:32.927Z,33.55
2022-12-19T13:08:00.823Z,40.58
2022-12-19T13:10:32.946Z,38.58
2022-12-19T13:13:07.981Z,39.70
2022-12-19T13:15:44.736Z,41.72
2022-12-19T13:18:32.081Z,33.38
2022-12-19T13:21:01.662Z,43.83
2022-12-19T13:24:16.272Z,36.58
2022-12-19T13:26:50.196Z,36.78
2022-12-19T13:29:31.128Z,43.90
2022-12-19T13:32:17.390Z,43.28
2022-12-19T13:34:58.585Z,35.33
2022-12-19T13:39:47.738Z,34.15
2022-12-19T13:40:51.591Z,32.60
2022-12-19T13:43:43.085Z,34.53
2022-12-19T13:46:26.313Z,31.05
2022-12-19T13:48:57.937Z,39.72
2022-12-19T13:51:26.696Z,36.40
2022-12-19T13:53:59.489Z,35.28
2022-12-19T13:56:32.433Z,35.00
2022-12-19T13:59:04.674Z,39.13
2022-12-19T14:01:35.496Z,34.85
2022-12-19T14:04:08.356Z,33.92
2022-12-19T14:06:42.702Z,32.85
2022-12-19T14:11:28.907Z,40.95
2022-12-19T14:13:43.950Z,34.83
2022-12-19T14:15:34.524Z,41.83
2022-12-19T14:18:29.975Z,47.63
2022-12-19T14:22:03.653Z,31.05
2022-12-19T14:24:12.812Z,33.58
2022-12-19T14:28:26.134Z,37.53
2022-12-19T14:30:28.486Z,38.60
2022-12-19T14:33:44.433Z,35.92
2022-12-19T14:36:07.474Z,40.33
2022-12-19T14:39:24.766Z,41.22
2022-12-19T14:41:08.416Z,50.83
2022-12-19T14:50:16.086Z,52.33
2022-12-19T14:54:05.917Z,48.47
2022-12-19T14:54:15.964Z,38.13
2022-12-19T14:54:55.283Z,49.97
2022-12-19T14:56:12.935Z,48.30
2022-12-19T14:58:56.011Z,41.15
2022-12-19T15:01:24.193Z,51.35
2022-12-19T15:04:50.397Z,45.30
2022-12-19T15:07:10.098Z,44.22
2022-12-19T15:11:00.651Z,43.80
2022-12-19T15:14:04.075Z,45.72
2022-12-19T15:15:43.360Z,53.42
2022-12-19T15:18:21.338Z,49.58
2022-12-19T15:20:50.269Z,42.22
2022-12-19T15:23:22.558Z,41.40
2022-12-19T15:26:04.571Z,46.97
2022-12-19T15:28:39.202Z,47.30
2022-12-19T15:31:15.762Z,50.58
2022-12-19T15:34:00.176Z,42.00
2022-12-19T15:36:32.089Z,48.75
2022-12-19T15:39:01.748Z,45.00
2022-12-19T15:41:29.749Z,41.53
2022-12-19T15:44:04.160Z,40.45
2022-12-19T15:46:33.127Z,41.58
2022-12-19T15:49:02.368Z,45.40
2022-12-19T15:51:30.635Z,42.78
2022-12-19T15:54:22.178Z,42.65
2022-12-19T15:56:52.904Z,44.63
2022-12-19T15:59:34.818Z,47.65
2022-12-19T16:02:14.692Z,44.33
2022-12-19T16:04:43.255Z,40.22
2022-12-19T16:07:15.990Z,47.42
2022-12-19T16:09:43.917Z,35.47
2022-12-19T16:12:16.194Z,44.80
2022-12-19T16:14:45.348Z,40.45
2022-12-19T16:17:24.712Z,43.67
2022-12-19T16:19:54.215Z,55.20
2022-12-19T16:22:24.350Z,59.30
2022-12-19T16:24:53.512Z,54.38
2022-12-19T16:27:27.097Z,41.55
2022-12-19T16:29:55.954Z,47.03
2022-12-19T16:32:25.703Z,152.18
2022-12-19T16:34:54.713Z,52.60
2022-12-19T16:37:31.969Z,98.03
2022-12-19T16:40:02.388Z,53.88
2022-12-19T16:42:35.447Z,47.25
2022-12-19T16:45:04.708Z,46.05
2022-12-19T16:47:32.880Z,39.03
2022-12-19T16:50:00.913Z,42.25
2022-12-19T16:52:29.307Z,51.17
2022-12-19T16:54:57.232Z,50.72
2022-12-19T16:57:25.591Z,42.92
2022-12-19T16:59:55.822Z,40.47
2022-12-19T17:02:44.534Z,40.50
2022-12-19T17:05:24.502Z,42.00
2022-12-19T17:07:53.452Z,34.90
2022-12-19T17:10:26.650Z,40.05
2022-12-19T17:12:55.741Z,40.88
2022-12-19T17:15:29.284Z,37.88
2022-12-19T17:18:01.995Z,39.13
2022-12-19T17:20:37.154Z,36.47
2022-12-19T17:23:13.665Z,40.65
2022-12-19T17:25:42.002Z,40.45
2022-12-19T17:28:10.264Z,41.45
2022-12-19T17:30:41.203Z,43.72
2022-12-19T17:33:15.978Z,41.58
2022-12-19T17:35:45.115Z,43.10
2022-12-19T17:38:15.103Z,43.00
2022-12-19T17:40:43.530Z,38.97
2022-12-19T17:43:13.024Z,43.45
2022-12-19T17:45:43.235Z,47.17
2022-12-19T17:48:22.600Z,48.15
2022-12-19T17:50:50.621Z,44.92
2022-12-19T17:53:18.988Z,38.97
2022-12-19T17:55:47.453Z,41.40
2022-12-19T17:58:15.784Z,43.08
2022-12-19T18:00:47.659Z,43.95
2022-12-19T18:03:22.744Z,44.95
2022-12-19T18:05:53.626Z,49.58
2022-12-19T18:08:27.756Z,44.58
2022-12-19T18:10:58.036Z,44.30
2022-12-19T18:13:27.280Z,41.83
2022-12-19T18:16:00.028Z,45.17
2022-12-19T18:18:30.873Z,48.53
2022-12-19T18:21:00.885Z,40.35
2022-12-19T18:23:30.462Z,46.53
2022-12-19T18:26:01.890Z,45.75
2022-12-19T18:28:30.543Z,42.42
2022-12-19T18:31:04.024Z,45.78
2022-12-19T18:33:43.157Z,38.83
2022-12-19T18:36:18.870Z,43.05
2022-12-19T18:38:47.569Z,42.13
2022-12-19T18:41:16.852Z,38.38
2022-12-19T18:43:51.755Z,37.67
2022-12-19T18:46:29.636Z,40.60
2022-12-19T18:48:59.712Z,45.67
2022-12-19T18:51:27.948Z,35.08
2022-12-19T18:53:55.923Z,38.97
2022-12-19T18:56:25.590Z,54.65
2022-12-19T18:58:53.845Z,44.85
2022-12-19T19:01:23.192Z,43.13
2022-12-19T19:03:55.340Z,44.92
2022-12-19T19:06:25.647Z,47.28
2022-12-19T19:08:54.031Z,49.85
2022-12-19T19:11:23.963Z,44.03
2022-12-19T19:13:52.380Z,51.25
2022-12-19T19:16:25.077Z,34.92
2022-12-19T19:18:54.347Z,40.70
2022-12-19T19:21:25.814Z,44.20
2022-12-19T19:23:57.447Z,40.55
2022-12-19T19:26:25.914Z,41.45
2022-12-19T19:28:53.764Z,39.67
2022-12-19T19:31:27.005Z,38.38
2022-12-19T19:33:59.226Z,38.60
2022-12-19T19:36:32.274Z,41.25
2022-12-19T19:39:00.538Z,46.95
2022-12-19T19:41:30.113Z,40.53
2022-12-19T19:43:59.186Z,40.63
2022-12-19T19:46:29.285Z,42.65
2022-12-19T19:48:58.175Z,39.75
2022-12-19T19:51:29.526Z,43.17
2022-12-19T19:53:57.537Z,39.00
2022-12-19T19:56:25.349Z,39.42
2022-12-19T19:58:55.425Z,47.17
2022-12-19T20:01:24.425Z,48.38
2022-12-19T20:03:54.338Z,38.08
2022-12-19T20:06:22.600Z,40.13
2022-12-19T20:08:53.439Z,29.52
2022-12-19T20:11:21.609Z,48.53
2022-12-19T20:13:51.897Z,55.28
2022-12-19T20:16:20.743Z,55.38
2022-12-19T20:18:50.864Z,43.50
2022-12-19T20:21:25.083Z,42.67
2022-12-19T20:23:55.897Z,40.97
2022-12-19T20:26:24.362Z,40.50
2022-12-19T20:28:53.200Z,39.38
2022-12-19T20:31:24.601Z,45.97
2022-12-19T20:33:54.997Z,35.83
2022-12-19T20:36:25.273Z,40.90
2022-12-19T20:38:56.326Z,45.03
2022-12-19T20:41:24.158Z,39.97
2022-12-19T20:43:53.065Z,34.30
2022-12-19T20:46:22.499Z,36.10
2022-12-19T20:48:51.166Z,41.35
2022-12-19T20:51:21.344Z,44.42
2022-12-19T20:53:54.943Z,42.03
2022-12-19T20:56:25.868Z,48.50
2022-12-19T20:58:54.013Z,41.65
2022-12-19T21:01:24.636Z,45.85
2022-12-19T21:03:53.703Z,48.40
2022-12-19T21:06:25.709Z,51.05
2022-12-19T21:08:55.607Z,39.25
2022-12-19T21:11:24.373Z,40.17
2022-12-19T21:13:52.615Z,38.78
2022-12-19T21:16:22.564Z,32.90
2022-12-19T21:18:51.643Z,41.13
2022-12-19T21:21:22.732Z,47.42
2022-12-19T21:23:51.966Z,41.88
2022-12-19T21:26:23.064Z,44.25
2022-12-19T21:28:51.364Z,41.60
2022-12-19T21:31:21.642Z,40.03
2022-12-19T21:33:51.568Z,44.50
2022-12-19T21:36:22.058Z,48.15
2022-12-19T21:38:53.117Z,52.78
2022-12-19T21:41:23.032Z,44.13
2022-12-19T21:43:53.977Z,40.72
2022-12-19T21:46:24.144Z,37.85
2022-12-19T21:48:54.084Z,39.88
2022-12-19T21:51:25.345Z,39.28
2022-12-19T21:53:56.270Z,37.95
2022-12-19T21:56:28.832Z,38.75
2022-12-19T21:58:59.698Z,37.28
2022-12-19T22:01:28.259Z,35.10
2022-12-19T22:04:00.572Z,39.53
2022-12-19T22:06:31.781Z,32.83
2022-12-19T22:09:00.363Z,35.35
2022-12-19T22:11:30.812Z,39.63
2022-12-19T22:14:01.621Z,31.83
2022-12-19T22:16:30.253Z,35.70
2022-12-19T22:18:59.298Z,36.85
2022-12-19T22:21:27.686Z,34.25
2022-12-19T22:23:59.073Z,40.55
2022-12-19T22:26:30.052Z,30.95
2022-12-19T22:28:59.335Z,34.95
2022-12-19T22:31:29.467Z,31.38
2022-12-19T22:34:00.235Z,32.72
2022-12-19T22:36:29.903Z,29.48
2022-12-19T22:38:59.885Z,29.27
2022-12-19T22:41:29.896Z,32.67
2022-12-19T22:43:58.350Z,32.20
2022-12-19T22:46:28.371Z,33.05
2022-12-19T22:48:57.937Z,37.67
2022-12-19T22:51:27.316Z,33.90
2022-12-19T22:53:56.595Z,39.20
2022-12-19T22:56:25.943Z,37.90
2022-12-19T22:58:56.967Z,35.33
2022-12-19T23:01:28.515Z,45.22
2022-12-19T23:03:58.213Z,37.47
2022-12-19T23:06:29.287Z,39.55
2022-12-19T23:08:57.110Z,37.90
2022-12-19T23:11:28.921Z,38.42
2022-12-19T23:13:58.234Z,36.53
2022-12-19T23:16:26.169Z,36.22
2022-12-19T23:18:54.808Z,42.53
2022-12-19T23:21:24.721Z,35.05
2022-12-19T23:23:55.100Z,39.45
2022-12-19T23:26:25.543Z,40.92
2022-12-19T23:28:56.955Z,34.85
2022-12-19T23:31:27.477Z,40.55
2022-12-19T23:33:56.648Z,36.35
2022-12-19T23:37:00.402Z,38.53
2022-12-19T23:39:13.312Z,28.45
2022-12-19T23:41:42.068Z,43.72
2022-12-19T23:44:11.239Z,32.67
2022-12-19T23:46:41.182Z,38.90
2022-12-19T23:49:09.013Z,34.30
2022-12-19T23:51:36.827Z,38.58
2022-12-19T23:54:05.292Z,39.33
2022-12-19T23:56:33.807Z,35.75
2022-12-19T23:59:02.844Z,30.35
